createdAt,value
2023-02-01T00:14:19.629Z,971.57
2023-02-01T00:29:21.543Z,971.68
2023-02-01T00:44:23.449Z,971.78
2023-02-01T00:59:25.347Z,971.63
2023-02-01T01:14:27.230Z,971.55
2023-02-01T01:29:29.339Z,971.37
2023-02-01T01:44:31.247Z,971.28
2023-02-01T01:59:33.186Z,971.26
2023-02-01T02:14:35.090Z,971.12
2023-02-01T02:29:37.122Z,971.15
2023-02-01T02:44:39.076Z,971.01
2023-02-01T02:59:40.964Z,971.03
2023-02-01T03:14:42.821Z,971.18
2023-02-01T03:29:44.741Z,971.15
2023-02-01T03:44:46.625Z,971.14
2023-02-01T03:59:48.542Z,971.32
2023-02-01T04:14:50.528Z,971.35
2023-02-01T04:29:52.471Z,971.25
2023-02-01T04:44:54.458Z,971.24
2023-02-01T04:59:56.394Z,971.2
2023-02-01T05:14:58.304Z,971.26
2023-02-01T05:30:00.203Z,971.23
2023-02-01T05:45:02.290Z,971.34
2023-02-01T06:00:04.245Z,971.52
2023-02-01T06:15:06.164Z,971.39
2023-02-01T06:30:08.311Z,971.44
2023-02-01T06:45:10.253Z,971.49
2023-02-01T07:00:12.209Z,971.6
2023-02-01T07:15:14.151Z,971.53
2023-02-01T07:30:16.055Z,971.57
2023-02-01T07:45:21.426Z,971.57
2023-02-01T08:00:24.013Z,971.4
2023-02-01T08:15:26.103Z,971.45
2023-02-01T08:30:28.006Z,971.52
2023-02-01T08:45:29.945Z,971.43
2023-02-01T09:00:32.127Z,971.19
2023-02-01T09:15:34.072Z,971.07
2023-02-01T09:30:36.045Z,971
2023-02-01T09:45:37.988Z,971.17
2023-02-01T10:00:39.918Z,971.25
2023-02-01T10:15:41.905Z,971.29
2023-02-01T10:30:43.985Z,971.25
2023-02-01T10:45:45.974Z,971.37
2023-02-01T11:00:47.906Z,971.37
2023-02-01T11:15:49.859Z,971.29
2023-02-01T11:30:51.783Z,971.23
2023-02-01T11:45:53.687Z,971.15
2023-02-01T12:00:55.724Z,971.18
2023-02-01T12:15:57.689Z,971.16
2023-02-01T12:30:59.593Z,971.02
2023-02-01T12:46:01.605Z,970.97
2023-02-01T13:01:03.598Z,970.93
2023-02-01T13:16:05.538Z,970.92
2023-02-01T13:31:07.629Z,970.92
2023-02-01T13:46:09.706Z,970.88
2023-02-01T14:01:11.769Z,970.9
2023-02-01T14:16:13.935Z,970.76
2023-02-01T14:31:16.015Z,970.76
2023-02-01T14:46:18.111Z,970.94
2023-02-01T15:01:20.142Z,970.96
2023-02-01T15:16:22.064Z,971.13
2023-02-01T15:31:24.174Z,971.27
2023-02-01T15:46:26.297Z,971.38
2023-02-01T16:01:28.239Z,971.36
2023-02-01T16:16:30.328Z,971.42
2023-02-01T16:31:32.344Z,971.54
2023-02-01T16:46:34.281Z,971.6
2023-02-01T17:01:36.248Z,971.6
2023-02-01T17:16:38.266Z,971.6
2023-02-01T17:31:40.259Z,971.63
2023-02-01T17:46:42.197Z,971.66
2023-02-01T18:01:44.141Z,971.55
2023-02-01T18:16:46.138Z,971.67
2023-02-01T18:31:48.431Z,971.66
2023-02-01T18:46:50.431Z,971.55
2023-02-01T19:01:52.563Z,971.44
2023-02-01T19:16:54.520Z,971.35
2023-02-01T19:31:56.493Z,971.28
2023-02-01T19:46:58.476Z,971.23
2023-02-01T20:01:59.634Z,971.21
2023-02-01T20:17:01.555Z,971.16
2023-02-01T20:32:04.319Z,971.02
2023-02-01T20:47:06.262Z,970.77
2023-02-01T21:02:08.300Z,970.66
2023-02-01T21:17:10.487Z,970.49
2023-02-01T21:32:12.468Z,970.5
2023-02-01T21:47:14.354Z,970.51
2023-02-01T22:02:16.359Z,970.57
2023-02-01T22:17:18.250Z,970.68
2023-02-01T22:32:20.149Z,970.83
2023-02-01T22:47:22.029Z,970.78
2023-02-01T23:02:23.933Z,970.82
2023-02-01T23:17:25.848Z,970.88
2023-02-01T23:32:27.790Z,970.88
2023-02-01T23:47:29.820Z,971.08
